Time;durP1;ratioP1;P1;durP2;ratioP2;P2;SDS_P1;SDS_P2;PMS_P1;PMS_P2;Temp;Humidity;BMP_temperature;BMP_pressure;BME280_temperature;BME280_humidity;BME280_pressure;Samples;Min_cycle;Max_cycle;Signal;HPM_P1;HPM_P2
2022/01/16 00:01:37;;;;;;;6.70;5.72;;;;;;;;;;5039248;28;20065;-61
2022/01/16 00:04:06;;;;;;;6.68;5.90;;;;;;;;;;5038624;28;20025;-62
2022/01/16 00:06:33;;;;;;;7.28;5.70;;;;;;;;;;5038813;28;20033;-62
2022/01/16 00:08:58;;;;;;;8.75;5.75;;;;;;;;;;5039540;28;20040;-62
2022/01/16 00:11:24;;;;;;;6.90;6.18;;;;;;;;;;5047683;28;20093;-62
2022/01/16 00:13:50;;;;;;;6.72;6.13;;;;;;;;;;5041700;28;20032;-62
2022/01/16 00:16:16;;;;;;;7.60;6.22;;;;;;;;;;5042614;28;20041;-62
2022/01/16 00:18:49;;;;;;;7.80;6.45;;;;;;;;;;5039115;28;20522;-62
2022/01/16 00:21:20;;;;;;;6.60;5.93;;;;;;;;;;5041480;28;20037;-62
2022/01/16 00:23:45;;;;;;;7.95;6.65;;;;;;;;;;5041783;28;20621;-62
2022/01/16 00:26:11;;;;;;;6.22;5.63;;;;;;;;;;5039336;28;20032;-62
2022/01/16 00:28:37;;;;;;;5.38;4.90;;;;;;;;;;5041490;28;20478;-62
2022/01/16 00:31:02;;;;;;;7.05;5.32;;;;;;;;;;5041239;28;20116;-62
2022/01/16 00:33:27;;;;;;;5.70;5.10;;;;;;;;;;5041640;28;20044;-61
2022/01/16 00:35:53;;;;;;;6.15;5.45;;;;;;;;;;5044040;28;20025;-62
2022/01/16 00:38:18;;;;;;;5.65;4.85;;;;;;;;;;5037793;28;20045;-61
2022/01/16 00:40:44;;;;;;;6.30;4.78;;;;;;;;;;5040914;28;20083;-61
2022/01/16 00:43:09;;;;;;;10.32;6.40;;;;;;;;;;5040642;28;20065;-61
2022/01/16 00:45:35;;;;;;;7.18;5.75;;;;;;;;;;5039935;28;20654;-61
2022/01/16 00:48:02;;;;;;;7.10;5.25;;;;;;;;;;5039011;28;20172;-61
2022/01/16 00:50:29;;;;;;;6.13;5.63;;;;;;;;;;5042638;28;20407;-61
2022/01/16 00:52:55;;;;;;;6.15;5.03;;;;;;;;;;5039177;28;20041;-61
2022/01/16 00:55:20;;;;;;;5.78;4.95;;;;;;;;;;5045085;28;20048;-61
2022/01/16 00:57:46;;;;;;;5.85;4.75;;;;;;;;;;5039071;28;20569;-61
2022/01/16 01:00:11;;;;;;;7.70;6.10;;;;;;;;;;5043900;28;20112;-61
2022/01/16 01:02:37;;;;;;;7.18;4.93;;;;;;;;;;5039593;28;20045;-61
2022/01/16 01:05:02;;;;;;;7.18;6.07;;;;;;;;;;5038996;28;20024;-61
2022/01/16 01:07:28;;;;;;;8.10;6.82;;;;;;;;;;5040267;28;20033;-61
2022/01/16 01:09:53;;;;;;;8.18;6.95;;;;;;;;;;5039714;28;20689;-61
2022/01/16 01:12:29;;;;;;;9.95;7.15;;;;;;;;;;5038702;28;20401;-60
2022/01/16 01:15:09;;;;;;;9.32;6.78;;;;;;;;;;5040205;28;20033;-61
2022/01/16 01:17:43;;;;;;;7.93;7.22;;;;;;;;;;5037752;28;20103;-61
2022/01/16 01:20:10;;;;;;;6.68;5.93;;;;;;;;;;5045774;28;20048;-61
2022/01/16 01:22:35;;;;;;;8.73;6.93;;;;;;;;;;5040257;28;20064;-60
2022/01/16 01:25:01;;;;;;;7.25;6.50;;;;;;;;;;5042177;28;20430;-61
2022/01/16 01:27:31;;;;;;;13.18;6.70;;;;;;;;;;5039285;28;20049;-61
2022/01/16 01:30:02;;;;;;;8.43;7.40;;;;;;;;;;5040255;28;20036;-61
2022/01/16 01:32:27;;;;;;;9.23;7.97;;;;;;;;;;5038914;28;20463;-61
2022/01/16 01:34:53;;;;;;;8.48;7.22;;;;;;;;;;5039453;28;20048;-61
2022/01/16 01:37:18;;;;;;;11.50;7.13;;;;;;;;;;5041497;28;20060;-61
2022/01/16 01:39:43;;;;;;;13.63;6.90;;;;;;;;;;5038960;28;20106;-61
2022/01/16 01:42:12;;;;;;;10.57;6.68;;;;;;;;;;5041712;28;20025;-60
2022/01/16 01:52:55;;;;;;;10.55;8.27;;;;;;;;;;5036071;28;20361;-61
2022/01/16 01:55:23;;;;;;;7.78;6.63;;;;;;;;;;5038323;28;20037;-61
2022/01/16 01:57:49;;;;;;;8.77;7.53;;;;;;;;;;5037532;28;20055;-61
2022/01/16 02:00:17;;;;;;;7.10;5.93;;;;;;;;;;5037033;28;20079;-61
2022/01/16 02:05:25;;;;;;;8.93;6.18;;;;;;;;;;5042171;28;20093;-60
2022/01/16 02:07:50;;;;;;;9.18;8.23;;;;;;;;;;5038477;28;20131;-59
2022/01/16 02:10:15;;;;;;;11.50;7.22;;;;;;;;;;5037051;28;20034;-60
2022/01/16 02:12:44;;;;;;;13.00;7.38;;;;;;;;;;5038282;28;20076;-60
2022/01/16 02:29:26;;;;;;;13.10;7.35;;;;;;;;;;5039666;28;20021;-61
2022/01/16 02:31:41;;;;;;;12.80;8.35;;;;;;;;;;5040599;28;20037;-61
2022/01/16 02:36:53;;;;;;;11.63;7.78;;;;;;;;;;5038902;28;20033;-62
2022/01/16 02:39:25;;;;;;;14.05;8.88;;;;;;;;;;5037820;28;20032;-61
2022/01/16 02:41:52;;;;;;;14.98;8.15;;;;;;;;;;5037674;28;20034;-61
2022/01/16 02:44:30;;;;;;;11.25;7.82;;;;;;;;;;5036355;28;20025;-62
2022/01/16 02:46:57;;;;;;;8.93;7.65;;;;;;;;;;5037951;28;20069;-62
2022/01/16 02:49:27;;;;;;;10.65;8.80;;;;;;;;;;5039360;28;20075;-62
2022/01/16 02:52:00;;;;;;;11.60;7.60;;;;;;;;;;5042637;28;20033;-62
2022/01/16 02:54:27;;;;;;;15.52;9.75;;;;;;;;;;5039749;28;20463;-62
2022/01/16 02:56:53;;;;;;;10.25;7.80;;;;;;;;;;5041532;28;20464;-62
2022/01/16 02:59:20;;;;;;;11.43;9.00;;;;;;;;;;5038515;28;20063;-62
2022/01/16 03:01:46;;;;;;;10.38;8.95;;;;;;;;;;5040308;28;20458;-62
2022/01/16 03:04:11;;;;;;;12.88;10.43;;;;;;;;;;5045269;28;20040;-62
2022/01/16 03:06:37;;;;;;;9.13;6.55;;;;;;;;;;5043816;28;20041;-62
2022/01/16 03:09:07;;;;;;;20.75;10.10;;;;;;;;;;5041519;28;20040;-62
2022/01/16 03:11:39;;;;;;;11.77;8.05;;;;;;;;;;5041682;28;20091;-62
2022/01/16 03:14:12;;;;;;;11.88;9.30;;;;;;;;;;5043024;28;20113;-62
2022/01/16 03:16:42;;;;;;;13.98;9.27;;;;;;;;;;5044953;28;20474;-62
2022/01/16 03:21:54;;;;;;;11.13;9.88;;;;;;;;;;5040252;28;20041;-61
2022/01/16 03:24:25;;;;;;;13.68;10.07;;;;;;;;;;5037527;28;20108;-61
2022/01/16 03:27:12;;;;;;;10.80;8.43;;;;;;;;;;5040795;28;20040;-61
2022/01/16 03:29:39;;;;;;;10.05;9.05;;;;;;;;;;5041550;28;20053;-62
2022/01/16 03:32:09;;;;;;;16.00;9.60;;;;;;;;;;5056780;28;20032;-62
2022/01/16 03:34:34;;;;;;;12.35;9.35;;;;;;;;;;5040320;28;20085;-61
2022/01/16 03:37:00;;;;;;;14.07;10.45;;;;;;;;;;5041217;28;20033;-61
2022/01/16 03:39:26;;;;;;;9.52;7.05;;;;;;;;;;5038008;28;20040;-61
2022/01/16 03:41:52;;;;;;;11.85;8.20;;;;;;;;;;5041940;28;20066;-62
2022/01/16 03:44:19;;;;;;;12.45;9.35;;;;;;;;;;5041399;28;20029;-62
2022/01/16 03:46:44;;;;;;;13.13;8.55;;;;;;;;;;5039212;28;20040;-62
2022/01/16 03:49:12;;;;;;;11.20;8.10;;;;;;;;;;5040846;28;20029;-61
2022/01/16 03:51:39;;;;;;;11.93;7.88;;;;;;;;;;5041673;28;20038;-61
2022/01/16 03:54:08;;;;;;;9.05;8.15;;;;;;;;;;5041041;28;20037;-60
2022/01/16 03:56:34;;;;;;;10.90;9.13;;;;;;;;;;5042336;28;20033;-62
2022/01/16 03:58:59;;;;;;;9.65;8.18;;;;;;;;;;5042398;28;20033;-61
2022/01/16 04:01:25;;;;;;;9.05;7.25;;;;;;;;;;5038988;28;20025;-62
2022/01/16 04:03:52;;;;;;;7.57;5.55;;;;;;;;;;5045022;28;20036;-62
2022/01/16 04:06:19;;;;;;;8.48;6.25;;;;;;;;;;5037821;28;20463;-62
2022/01/16 04:08:49;;;;;;;8.93;7.53;;;;;;;;;;5042301;28;20033;-62
2022/01/16 04:11:15;;;;;;;9.40;6.18;;;;;;;;;;5039548;28;20033;-61
2022/01/16 04:13:51;;;;;;;7.63;6.05;;;;;;;;;;5039301;28;20033;-61
2022/01/16 04:16:17;;;;;;;6.88;6.18;;;;;;;;;;5040493;28;20035;-62
2022/01/16 04:18:43;;;;;;;8.13;6.20;;;;;;;;;;5037703;28;20040;-62
2022/01/16 04:21:08;;;;;;;7.15;6.40;;;;;;;;;;5038526;28;20025;-62
2022/01/16 04:23:34;;;;;;;9.32;7.85;;;;;;;;;;5038759;28;20028;-61
2022/01/16 04:25:59;;;;;;;6.68;5.90;;;;;;;;;;5041269;28;20025;-61
2022/01/16 04:28:25;;;;;;;8.63;7.38;;;;;;;;;;5042553;28;20459;-62
2022/01/16 04:30:53;;;;;;;7.55;6.43;;;;;;;;;;5039360;28;20489;-62
2022/01/16 04:33:19;;;;;;;7.07;6.40;;;;;;;;;;5043233;28;20024;-61
2022/01/16 04:35:45;;;;;;;7.97;6.28;;;;;;;;;;5042644;28;20025;-62
2022/01/16 04:38:11;;;;;;;23.42;6.47;;;;;;;;;;5040115;28;20043;-61
2022/01/16 04:43:47;;;;;;;8.13;6.32;;;;;;;;;;5040398;28;20064;-62
2022/01/16 04:46:11;;;;;;;7.15;5.68;;;;;;;;;;5042640;28;20144;-61
2022/01/16 04:48:37;;;;;;;5.82;4.53;;;;;;;;;;5043721;28;20481;-61
2022/01/16 04:51:02;;;;;;;8.95;6.20;;;;;;;;;;5038003;28;20033;-62
2022/01/16 04:53:28;;;;;;;10.68;6.82;;;;;;;;;;5039628;28;20055;-62
2022/01/16 04:55:53;;;;;;;6.72;6.00;;;;;;;;;;5039787;28;20037;-62
2022/01/16 04:58:21;;;;;;;13.07;6.43;;;;;;;;;;5041461;28;20036;-61
2022/01/16 05:00:46;;;;;;;7.43;5.22;;;;;;;;;;5039855;28;20105;-61
2022/01/16 05:03:12;;;;;;;6.53;5.70;;;;;;;;;;5036437;28;20116;-61
2022/01/16 05:05:37;;;;;;;7.07;5.63;;;;;;;;;;5038316;28;20493;-61
2022/01/16 05:08:03;;;;;;;8.85;7.18;;;;;;;;;;5037741;28;20078;-61
2022/01/16 05:10:28;;;;;;;12.13;7.47;;;;;;;;;;5037712;28;20376;-61
2022/01/16 05:12:54;;;;;;;8.85;5.80;;;;;;;;;;5038898;28;20501;-61
2022/01/16 05:18:03;;;;;;;7.07;6.38;;;;;;;;;;5039929;28;20080;-61
2022/01/16 05:20:28;;;;;;;7.95;5.75;;;;;;;;;;5041609;28;20064;-61
2022/01/16 05:22:54;;;;;;;6.85;6.15;;;;;;;;;;5039126;28;20155;-61
2022/01/16 05:25:19;;;;;;;10.57;7.45;;;;;;;;;;5038823;28;20029;-61
2022/01/16 05:27:45;;;;;;;7.10;5.88;;;;;;;;;;5039560;28;20059;-61
2022/01/16 05:30:11;;;;;;;7.03;5.90;;;;;;;;;;5039066;28;20387;-61
2022/01/16 05:32:36;;;;;;;8.60;6.30;;;;;;;;;;5039480;28;20147;-61
2022/01/16 05:35:02;;;;;;;8.57;7.00;;;;;;;;;;5038860;28;20033;-60
2022/01/16 05:37:28;;;;;;;8.05;5.43;;;;;;;;;;5037346;28;20033;-61
2022/01/16 05:39:54;;;;;;;6.65;5.97;;;;;;;;;;5037291;28;20032;-60
2022/01/16 05:42:19;;;;;;;12.15;7.68;;;;;;;;;;5035705;28;20585;-60
2022/01/16 05:44:44;;;;;;;8.77;5.57;;;;;;;;;;5037936;28;20029;-60
2022/01/16 05:47:12;;;;;;;6.47;5.88;;;;;;;;;;5039800;28;20858;-61
2022/01/16 05:49:39;;;;;;;7.13;6.38;;;;;;;;;;5038708;28;20052;-60
2022/01/16 05:52:05;;;;;;;6.88;5.95;;;;;;;;;;5040952;28;20055;-60
2022/01/16 05:54:31;;;;;;;7.03;5.65;;;;;;;;;;5038289;28;20479;-61
2022/01/16 05:56:56;;;;;;;7.15;6.45;;;;;;;;;;5039596;28;20423;-60
2022/01/16 05:59:21;;;;;;;7.40;6.00;;;;;;;;;;5039894;28;20099;-61
2022/01/16 06:01:47;;;;;;;10.27;6.45;;;;;;;;;;5039029;28;20033;-61
2022/01/16 06:04:12;;;;;;;6.15;5.35;;;;;;;;;;5040277;28;20044;-61
2022/01/16 06:06:37;;;;;;;6.10;5.50;;;;;;;;;;5036281;28;20029;-61
2022/01/16 06:09:03;;;;;;;6.97;6.38;;;;;;;;;;5038032;28;20463;-61
2022/01/16 06:11:28;;;;;;;6.90;6.03;;;;;;;;;;5040441;28;20056;-61
2022/01/16 06:13:54;;;;;;;5.90;5.20;;;;;;;;;;5037133;28;20041;-61
2022/01/16 06:16:19;;;;;;;5.90;5.32;;;;;;;;;;5037707;28;20041;-61
2022/01/16 06:18:45;;;;;;;5.50;4.97;;;;;;;;;;5040829;28;20043;-61
2022/01/16 06:21:10;;;;;;;6.22;4.82;;;;;;;;;;5038941;28;20033;-60
2022/01/16 06:23:36;;;;;;;5.78;5.25;;;;;;;;;;5039231;28;20124;-61
2022/01/16 06:26:01;;;;;;;5.45;4.72;;;;;;;;;;5039852;28;20043;-61
2022/01/16 06:28:28;;;;;;;5.53;5.03;;;;;;;;;;5038473;28;20510;-61
2022/01/16 06:30:53;;;;;;;11.35;6.15;;;;;;;;;;5039841;28;20021;-61
2022/01/16 06:33:19;;;;;;;6.88;4.53;;;;;;;;;;5039355;28;20503;-61
2022/01/16 06:35:44;;;;;;;8.93;5.45;;;;;;;;;;5038828;28;20026;-60
2022/01/16 06:38:10;;;;;;;7.32;5.68;;;;;;;;;;5044419;28;20062;-60
2022/01/16 06:40:35;;;;;;;7.25;4.95;;;;;;;;;;5043175;28;20462;-60
2022/01/16 06:43:01;;;;;;;8.82;6.75;;;;;;;;;;5043456;28;20035;-59
2022/01/16 06:45:26;;;;;;;7.93;4.90;;;;;;;;;;5047169;28;20454;-60
2022/01/16 06:47:51;;;;;;;8.95;5.43;;;;;;;;;;5042863;28;20037;-59
2022/01/16 06:50:18;;;;;;;5.03;3.90;;;;;;;;;;5040882;28;20030;-59
2022/01/16 06:52:43;;;;;;;5.93;4.80;;;;;;;;;;5041486;28;20112;-59
2022/01/16 06:55:09;;;;;;;5.63;4.97;;;;;;;;;;5039328;28;20124;-59
2022/01/16 06:57:35;;;;;;;5.90;4.70;;;;;;;;;;5041514;28;20041;-60
2022/01/16 07:00:02;;;;;;;4.57;3.90;;;;;;;;;;5042784;28;20029;-60
2022/01/16 07:02:28;;;;;;;5.93;4.45;;;;;;;;;;5041086;28;20080;-59
2022/01/16 07:04:53;;;;;;;4.53;4.13;;;;;;;;;;5042653;28;20060;-59
2022/01/16 07:07:18;;;;;;;4.75;4.25;;;;;;;;;;5041136;28;20070;-60
2022/01/16 07:09:45;;;;;;;5.75;4.45;;;;;;;;;;5040418;28;20025;-59
2022/01/16 07:12:10;;;;;;;5.30;4.80;;;;;;;;;;5043197;28;20086;-60
2022/01/16 07:14:36;;;;;;;5.43;4.63;;;;;;;;;;5041685;28;20037;-60
2022/01/16 07:17:01;;;;;;;4.90;4.22;;;;;;;;;;5047038;28;20051;-60
2022/01/16 07:19:27;;;;;;;8.07;5.20;;;;;;;;;;5040885;28;20037;-60
2022/01/16 07:21:53;;;;;;;4.90;4.15;;;;;;;;;;5042877;28;20086;-60
2022/01/16 07:24:19;;;;;;;5.80;4.72;;;;;;;;;;5042440;28;20052;-61
2022/01/16 07:26:44;;;;;;;5.90;3.90;;;;;;;;;;5042331;28;20033;-61
2022/01/16 07:29:11;;;;;;;5.13;4.30;;;;;;;;;;5041607;28;20039;-60
2022/01/16 07:31:39;;;;;;;4.70;4.20;;;;;;;;;;5039892;28;20060;-60
2022/01/16 07:34:06;;;;;;;4.90;4.30;;;;;;;;;;5046861;28;20590;-60
2022/01/16 07:36:31;;;;;;;7.20;5.05;;;;;;;;;;5039946;28;20057;-60
2022/01/16 07:38:58;;;;;;;4.80;4.30;;;;;;;;;;5039346;28;20134;-59
2022/01/16 07:41:23;;;;;;;7.28;5.20;;;;;;;;;;5038608;28;20037;-59
2022/01/16 07:43:49;;;;;;;4.88;4.43;;;;;;;;;;5040753;28;20042;-59
2022/01/16 07:46:17;;;;;;;6.18;5.57;;;;;;;;;;5041898;28;20355;-58
2022/01/16 07:48:43;;;;;;;9.55;4.82;;;;;;;;;;5046947;28;20037;-59
2022/01/16 07:51:08;;;;;;;4.78;4.13;;;;;;;;;;5040145;28;20124;-58
2022/01/16 07:53:34;;;;;;;6.25;4.72;;;;;;;;;;5045121;28;20034;-60
2022/01/16 07:55:59;;;;;;;6.40;4.82;;;;;;;;;;5043378;28;20113;-58
2022/01/16 07:58:25;;;;;;;6.97;4.75;;;;;;;;;;5037906;28;20086;-60
2022/01/16 08:00:50;;;;;;;6.00;4.15;;;;;;;;;;5037057;28;20051;-59
2022/01/16 08:03:16;;;;;;;7.85;5.25;;;;;;;;;;5040607;28;20036;-60
2022/01/16 08:05:41;;;;;;;8.45;4.95;;;;;;;;;;5036555;28;20037;-59
2022/01/16 08:08:07;;;;;;;6.75;5.57;;;;;;;;;;5038970;28;20029;-59
2022/01/16 08:10:33;;;;;;;6.70;4.82;;;;;;;;;;5038281;28;20048;-60
2022/01/16 08:12:58;;;;;;;5.00;4.50;;;;;;;;;;5040827;28;20387;-59
2022/01/16 08:15:24;;;;;;;8.02;6.18;;;;;;;;;;5041502;28;20032;-59
2022/01/16 08:17:49;;;;;;;5.18;4.40;;;;;;;;;;5040160;28;20375;-59
2022/01/16 08:20:15;;;;;;;8.05;5.05;;;;;;;;;;5040887;28;20115;-58
2022/01/16 08:22:41;;;;;;;7.95;6.60;;;;;;;;;;5036660;28;20033;-59
2022/01/16 08:25:07;;;;;;;6.55;5.22;;;;;;;;;;5041267;28;20025;-60
2022/01/16 08:27:33;;;;;;;6.60;5.82;;;;;;;;;;5038970;28;20056;-60
2022/01/16 08:29:58;;;;;;;7.35;5.80;;;;;;;;;;5037063;28;20033;-60
2022/01/16 08:32:24;;;;;;;6.60;5.93;;;;;;;;;;5018843;28;20060;-60
2022/01/16 08:34:49;;;;;;;8.15;7.30;;;;;;;;;;5037099;28;20037;-59
2022/01/16 08:37:14;;;;;;;6.78;6.13;;;;;;;;;;5043481;28;20033;-60
2022/01/16 08:39:40;;;;;;;9.13;5.88;;;;;;;;;;5039374;28;20037;-60
2022/01/16 08:42:06;;;;;;;7.03;5.22;;;;;;;;;;5039914;28;20624;-60
2022/01/16 08:44:32;;;;;;;8.00;5.97;;;;;;;;;;5042344;28;20359;-60
2022/01/16 08:46:57;;;;;;;16.50;6.03;;;;;;;;;;5038062;28;20045;-59
2022/01/16 08:49:23;;;;;;;5.40;4.88;;;;;;;;;;5037534;28;20033;-59
2022/01/16 08:51:48;;;;;;;6.20;4.85;;;;;;;;;;5038011;28;20033;-59
2022/01/16 08:54:14;;;;;;;10.68;6.90;;;;;;;;;;5039283;28;20032;-59
2022/01/16 08:56:39;;;;;;;13.38;7.97;;;;;;;;;;5039759;28;20029;-59
2022/01/16 08:59:05;;;;;;;8.23;6.55;;;;;;;;;;5038238;28;20033;-59
2022/01/16 09:01:31;;;;;;;9.50;6.30;;;;;;;;;;5040672;28;20596;-59
2022/01/16 09:03:57;;;;;;;7.82;6.90;;;;;;;;;;5040505;28;20032;-59
2022/01/16 09:06:22;;;;;;;9.95;6.60;;;;;;;;;;5038986;28;20037;-59
2022/01/16 09:08:48;;;;;;;6.22;5.65;;;;;;;;;;5036622;28;20029;-60
2022/01/16 09:11:13;;;;;;;7.18;6.32;;;;;;;;;;5037770;28;20052;-59
2022/01/16 09:13:41;;;;;;;6.43;5.60;;;;;;;;;;5037279;28;20032;-59
2022/01/16 09:16:07;;;;;;;7.78;6.82;;;;;;;;;;5039309;28;20056;-60
2022/01/16 09:18:34;;;;;;;9.00;6.05;;;;;;;;;;5038631;28;20036;-60
2022/01/16 09:21:01;;;;;;;9.15;6.65;;;;;;;;;;5037844;28;20088;-60
2022/01/16 09:23:27;;;;;;;7.57;6.78;;;;;;;;;;5039688;28;20380;-59
2022/01/16 09:25:52;;;;;;;7.20;6.40;;;;;;;;;;5036479;28;20112;-59
2022/01/16 09:28:18;;;;;;;8.05;7.25;;;;;;;;;;5040459;28;20037;-60
2022/01/16 09:30:43;;;;;;;14.93;6.63;;;;;;;;;;5037758;28;20041;-60
2022/01/16 09:33:09;;;;;;;11.80;7.30;;;;;;;;;;5040669;28;20341;-60
2022/01/16 09:35:35;;;;;;;9.02;6.43;;;;;;;;;;5038386;28;20029;-59
2022/01/16 09:38:01;;;;;;;9.18;6.57;;;;;;;;;;5039628;28;20029;-60
2022/01/16 09:40:27;;;;;;;10.07;7.28;;;;;;;;;;5038146;28;20358;-59
2022/01/16 09:42:53;;;;;;;8.25;7.00;;;;;;;;;;5031088;28;20119;-60
2022/01/16 09:45:19;;;;;;;7.65;5.85;;;;;;;;;;5039913;28;20033;-59
2022/01/16 09:47:46;;;;;;;12.43;6.95;;;;;;;;;;5036702;28;20455;-59
2022/01/16 09:50:14;;;;;;;8.05;6.18;;;;;;;;;;5039451;28;20040;-59
2022/01/16 09:52:41;;;;;;;12.35;7.45;;;;;;;;;;5038897;28;20086;-60
2022/01/16 09:55:08;;;;;;;14.88;6.43;;;;;;;;;;5036881;28;20140;-59
2022/01/16 09:57:33;;;;;;;9.13;7.45;;;;;;;;;;5040984;28;20032;-59
2022/01/16 09:59:59;;;;;;;6.47;5.55;;;;;;;;;;5037851;28;20021;-59
2022/01/16 10:02:25;;;;;;;8.57;7.70;;;;;;;;;;5038419;28;20043;-60
2022/01/16 10:04:53;;;;;;;10.05;6.78;;;;;;;;;;5040426;28;20029;-60
2022/01/16 10:07:19;;;;;;;8.45;6.60;;;;;;;;;;5039175;28;20025;-60
2022/01/16 10:10:04;;;;;;;7.35;6.38;;;;;;;;;;5040021;28;20047;-60
2022/01/16 10:12:29;;;;;;;6.18;5.57;;;;;;;;;;5035861;28;20063;-60
2022/01/16 10:14:56;;;;;;;7.70;5.72;;;;;;;;;;5037579;28;20057;-60
2022/01/16 10:17:24;;;;;;;8.80;6.80;;;;;;;;;;5038531;28;20116;-60
2022/01/16 10:20:20;;;;;;;6.05;5.50;;;;;;;;;;5040888;28;20366;-59
2022/01/16 10:22:53;;;;;;;9.13;6.38;;;;;;;;;;5029151;28;20179;-60
2022/01/16 10:25:37;;;;;;;7.43;5.93;;;;;;;;;;5038517;28;20102;-56
2022/01/16 10:28:10;;;;;;;13.10;6.70;;;;;;;;;;5036915;28;20033;-57
2022/01/16 10:30:48;;;;;;;6.22;4.95;;;;;;;;;;5038533;28;20107;-57
2022/01/16 10:33:17;;;;;;;8.18;6.32;;;;;;;;;;5036091;28;20428;-57
2022/01/16 10:35:44;;;;;;;8.70;6.65;;;;;;;;;;5041280;28;20119;-55
2022/01/16 10:38:15;;;;;;;6.38;5.55;;;;;;;;;;5034631;28;20136;-57
2022/01/16 10:40:42;;;;;;;7.18;6.18;;;;;;;;;;5039085;28;20238;-56
2022/01/16 10:43:15;;;;;;;6.28;5.60;;;;;;;;;;5036157;28;20033;-56
2022/01/16 10:45:43;;;;;;;5.63;5.00;;;;;;;;;;5038060;28;20234;-56
2022/01/16 10:48:10;;;;;;;11.90;6.93;;;;;;;;;;5037598;28;20127;-57
2022/01/16 10:50:38;;;;;;;11.15;6.80;;;;;;;;;;5036217;28;20114;-56
2022/01/16 10:53:06;;;;;;;7.30;6.20;;;;;;;;;;5036612;28;20037;-55
2022/01/16 10:55:40;;;;;;;13.18;7.10;;;;;;;;;;5037235;28;20265;-56
2022/01/16 10:58:16;;;;;;;7.47;6.50;;;;;;;;;;5038910;28;20489;-53
2022/01/16 11:00:44;;;;;;;6.68;6.07;;;;;;;;;;5039032;28;20454;-55
2022/01/16 11:03:12;;;;;;;9.77;7.53;;;;;;;;;;5034803;28;20033;-56
2022/01/16 11:05:43;;;;;;;6.07;5.47;;;;;;;;;;5040323;28;20037;-56
2022/01/16 11:08:13;;;;;;;9.02;5.93;;;;;;;;;;5038263;28;20033;-57
2022/01/16 11:10:41;;;;;;;7.35;6.63;;;;;;;;;;5035873;28;20080;-55
2022/01/16 11:13:09;;;;;;;9.30;6.28;;;;;;;;;;5034046;28;20039;-56
2022/01/16 11:15:36;;;;;;;6.88;5.80;;;;;;;;;;5037963;28;20514;-56
2022/01/16 11:18:03;;;;;;;6.15;5.55;;;;;;;;;;5035256;28;20124;-54
2022/01/16 11:20:33;;;;;;;6.93;6.25;;;;;;;;;;5038648;28;20041;-57
2022/01/16 11:23:06;;;;;;;6.13;5.50;;;;;;;;;;5042155;28;20018;-57
2022/01/16 11:25:36;;;;;;;7.32;5.88;;;;;;;;;;5038748;28;20030;-57
2022/01/16 11:28:11;;;;;;;9.60;5.85;;;;;;;;;;5039229;28;20446;-57
2022/01/16 11:30:43;;;;;;;19.35;4.75;;;;;;;;;;5040114;28;20041;-56
2022/01/16 11:33:09;;;;;;;7.00;6.03;;;;;;;;;;5041654;28;20126;-58
2022/01/16 11:35:40;;;;;;;7.25;6.07;;;;;;;;;;5041003;28;20101;-57
2022/01/16 11:38:06;;;;;;;5.78;5.03;;;;;;;;;;5041604;28;20026;-58
2022/01/16 11:40:44;;;;;;;9.38;6.90;;;;;;;;;;5041108;28;20363;-58
2022/01/16 11:43:15;;;;;;;7.20;4.80;;;;;;;;;;5041482;28;20506;-58
2022/01/16 11:45:51;;;;;;;8.07;6.72;;;;;;;;;;5043073;28;20033;-58
2022/01/16 11:48:18;;;;;;;6.88;5.53;;;;;;;;;;5044621;28;20029;-58
2022/01/16 11:50:45;;;;;;;6.38;5.57;;;;;;;;;;5042395;28;20037;-55
2022/01/16 11:53:10;;;;;;;7.90;6.57;;;;;;;;;;5040176;28;20037;-57
2022/01/16 11:55:35;;;;;;;7.70;6.45;;;;;;;;;;5041463;28;20041;-55
2022/01/16 11:58:01;;;;;;;8.98;7.85;;;;;;;;;;5042454;28;20029;-57
2022/01/16 12:00:44;;;;;;;7.47;6.60;;;;;;;;;;5041730;28;20044;-57
2022/01/16 12:03:35;;;;;;;9.38;6.03;;;;;;;;;;5040647;28;20112;-57
2022/01/16 12:06:29;;;;;;;11.50;7.55;;;;;;;;;;5039749;28;20133;-54
2022/01/16 12:08:56;;;;;;;12.90;6.97;;;;;;;;;;5038530;28;20103;-54
2022/01/16 12:11:38;;;;;;;13.50;6.45;;;;;;;;;;5043321;28;20474;-55
2022/01/16 12:14:03;;;;;;;6.63;5.82;;;;;;;;;;5039178;28;20363;-56
2022/01/16 12:16:40;;;;;;;7.82;6.47;;;;;;;;;;5037296;28;20037;-56
2022/01/16 12:19:31;;;;;;;8.68;6.53;;;;;;;;;;5038749;28;20032;-57
2022/01/16 12:21:56;;;;;;;5.63;5.13;;;;;;;;;;5038828;28;20459;-57
2022/01/16 12:24:35;;;;;;;7.32;6.63;;;;;;;;;;5041335;28;20186;-57
2022/01/16 12:27:23;;;;;;;7.22;6.25;;;;;;;;;;5038707;28;20041;-56
2022/01/16 12:30:12;;;;;;;5.78;5.28;;;;;;;;;;5039859;28;20044;-56
2022/01/16 12:33:10;;;;;;;6.50;5.68;;;;;;;;;;5038615;28;20059;-57
2022/01/16 12:35:38;;;;;;;7.28;6.50;;;;;;;;;;5033733;28;20128;-54
2022/01/16 12:38:07;;;;;;;12.38;8.27;;;;;;;;;;5039305;28;20105;-55
2022/01/16 12:40:32;;;;;;;10.05;6.72;;;;;;;;;;5037647;28;20530;-57
2022/01/16 12:43:00;;;;;;;10.38;8.07;;;;;;;;;;5036841;28;20079;-54
2022/01/16 12:45:25;;;;;;;6.30;5.75;;;;;;;;;;5036273;28;20029;-57
2022/01/16 12:47:52;;;;;;;8.10;7.05;;;;;;;;;;5037145;28;20022;-57
2022/01/16 12:50:17;;;;;;;10.00;7.30;;;;;;;;;;5038580;28;20076;-58
2022/01/16 12:52:47;;;;;;;7.78;6.85;;;;;;;;;;5038838;28;20057;-58
2022/01/16 12:55:13;;;;;;;9.40;7.88;;;;;;;;;;5037348;28;20108;-58
2022/01/16 12:57:38;;;;;;;10.02;7.88;;;;;;;;;;5038687;28;20112;-58
2022/01/16 13:00:11;;;;;;;5.88;5.38;;;;;;;;;;5039733;28;20531;-58
2022/01/16 13:02:38;;;;;;;11.73;6.85;;;;;;;;;;5040664;28;20033;-58
2022/01/16 13:05:05;;;;;;;9.38;7.30;;;;;;;;;;5040140;28;20051;-58
2022/01/16 13:07:31;;;;;;;7.85;5.95;;;;;;;;;;5040838;28;20086;-60
2022/01/16 13:09:57;;;;;;;10.30;6.80;;;;;;;;;;5036914;28;20462;-59
2022/01/16 13:12:22;;;;;;;7.97;6.82;;;;;;;;;;5037706;28;20047;-60
2022/01/16 13:14:48;;;;;;;8.10;7.32;;;;;;;;;;5042064;28;20025;-61
2022/01/16 13:17:14;;;;;;;15.52;7.00;;;;;;;;;;5038786;28;20033;-61
2022/01/16 13:22:11;;;;;;;6.25;5.75;;;;;;;;;;5041784;28;20490;-61
2022/01/16 13:25:02;;;;;;;8.40;6.32;;;;;;;;;;5034169;28;20044;-60
2022/01/16 13:27:32;;;;;;;8.93;7.20;;;;;;;;;;5047163;28;20034;-60
2022/01/16 13:30:04;;;;;;;7.93;7.25;;;;;;;;;;5037911;28;20837;-61
2022/01/16 13:32:38;;;;;;;8.57;7.75;;;;;;;;;;5036633;28;20033;-61
2022/01/16 13:35:17;;;;;;;8.07;7.32;;;;;;;;;;5037496;28;20041;-61
2022/01/16 13:37:43;;;;;;;9.32;6.55;;;;;;;;;;5038719;28;20094;-61
2022/01/16 13:40:13;;;;;;;7.82;7.03;;;;;;;;;;5038917;28;20104;-61
2022/01/16 13:42:49;;;;;;;9.65;7.32;;;;;;;;;;5040458;28;20024;-60
2022/01/16 13:45:32;;;;;;;7.95;7.15;;;;;;;;;;5037432;28;20451;-61
2022/01/16 13:48:07;;;;;;;8.68;7.78;;;;;;;;;;5040830;28;20068;-61
2022/01/16 13:50:44;;;;;;;8.25;6.13;;;;;;;;;;5037377;28;20598;-61
2022/01/16 13:53:17;;;;;;;6.50;5.82;;;;;;;;;;5036670;28;20025;-61
2022/01/16 13:55:45;;;;;;;7.18;6.28;;;;;;;;;;5037284;28;20037;-61
2022/01/16 13:58:17;;;;;;;6.38;5.78;;;;;;;;;;5045252;28;20025;-61
2022/01/16 14:00:42;;;;;;;8.00;6.72;;;;;;;;;;5038537;28;20029;-61
2022/01/16 14:03:09;;;;;;;7.55;6.82;;;;;;;;;;5043131;28;20099;-61
2022/01/16 14:05:40;;;;;;;8.13;6.10;;;;;;;;;;5038342;28;20104;-62
2022/01/16 14:08:39;;;;;;;5.35;4.85;;;;;;;;;;5039092;28;20091;-62
2022/01/16 14:11:14;;;;;;;8.05;6.15;;;;;;;;;;5032657;28;20113;-61
2022/01/16 14:13:56;;;;;;;8.23;6.30;;;;;;;;;;5041140;28;20561;-61
2022/01/16 14:16:31;;;;;;;8.55;6.78;;;;;;;;;;5036165;28;20489;-61
2022/01/16 14:24:19;;;;;;;7.00;5.05;;;;;;;;;;5037384;28;20300;-61
2022/01/16 14:26:46;;;;;;;5.53;5.03;;;;;;;;;;5038507;28;20034;-61
2022/01/16 14:29:13;;;;;;;6.10;4.95;;;;;;;;;;5037139;28;20379;-61
2022/01/16 14:31:39;;;;;;;6.13;5.57;;;;;;;;;;5036778;28;20048;-60
2022/01/16 14:34:04;;;;;;;5.13;4.68;;;;;;;;;;5036087;28;20029;-60
2022/01/16 14:36:30;;;;;;;6.57;5.72;;;;;;;;;;5036179;28;20110;-61
2022/01/16 14:38:55;;;;;;;6.47;5.93;;;;;;;;;;5036301;28;20130;-61
2022/01/16 14:41:22;;;;;;;6.90;6.18;;;;;;;;;;5036820;28;20071;-60
2022/01/16 14:43:54;;;;;;;6.05;5.50;;;;;;;;;;5033566;28;20021;-61
2022/01/16 14:46:20;;;;;;;6.57;5.45;;;;;;;;;;5035556;28;20037;-62
2022/01/16 14:48:47;;;;;;;7.72;6.20;;;;;;;;;;5039902;28;20105;-60
2022/01/16 14:51:14;;;;;;;6.00;5.45;;;;;;;;;;5038675;28;20034;-62
2022/01/16 14:53:39;;;;;;;7.88;6.32;;;;;;;;;;5038863;28;20048;-59
2022/01/16 14:56:05;;;;;;;13.38;7.47;;;;;;;;;;5037874;28;20033;-61
2022/01/16 14:58:30;;;;;;;6.50;5.40;;;;;;;;;;5038892;28;20045;-61
2022/01/16 15:00:55;;;;;;;7.05;6.10;;;;;;;;;;5040427;28;20116;-61
2022/01/16 15:03:21;;;;;;;7.15;6.03;;;;;;;;;;5038540;28;20081;-59
2022/01/16 15:05:46;;;;;;;6.30;5.53;;;;;;;;;;5038319;28;20403;-61
2022/01/16 15:08:12;;;;;;;7.72;5.80;;;;;;;;;;5041568;28;20175;-61
2022/01/16 15:10:37;;;;;;;10.57;8.30;;;;;;;;;;5040683;28;20112;-61
2022/01/16 15:13:02;;;;;;;7.22;6.47;;;;;;;;;;5042325;28;20038;-60
2022/01/16 15:15:28;;;;;;;7.00;6.28;;;;;;;;;;5044124;28;20044;-62
2022/01/16 15:17:57;;;;;;;10.85;9.93;;;;;;;;;;5041034;28;20108;-61
2022/01/16 15:20:28;;;;;;;9.38;7.15;;;;;;;;;;5042281;28;20037;-60
2022/01/16 15:22:56;;;;;;;;;;;;;;;;;;5039481;28;20032;-60
2022/01/16 15:25:21;;;;;;;10.05;7.93;;;;;;;;;;5038515;28;19912;-60
2022/01/16 15:27:47;;;;;;;8.02;7.15;;;;;;;;;;5040609;28;20033;-60
2022/01/16 15:30:13;;;;;;;10.48;7.15;;;;;;;;;;5041647;28;20048;-60